createdAt,value
2019-03-17T00:04:47.383Z,4.4
2019-03-17T00:10:10.735Z,4.2
2019-03-17T00:15:33.431Z,4.6
2019-03-17T00:20:56.179Z,4.5
2019-03-17T00:26:18.895Z,3.5
2019-03-17T00:31:41.570Z,4.5
2019-03-17T00:37:04.388Z,4.1
2019-03-17T00:42:27.033Z,4.6
2019-03-17T00:47:49.834Z,4.3
2019-03-17T00:53:12.631Z,4.3
2019-03-17T00:58:35.488Z,4.3
2019-03-17T01:03:59.343Z,4.7
2019-03-17T01:09:22.053Z,4.5
2019-03-17T01:14:44.651Z,4.4
2019-03-17T01:20:07.400Z,4.2
2019-03-17T01:25:30.140Z,4
2019-03-17T01:30:53.778Z,4.1
2019-03-17T01:36:16.615Z,3.9
2019-03-17T01:41:39.297Z,4.1
2019-03-17T01:47:02.522Z,3.5
2019-03-17T01:52:25.167Z,3.8
2019-03-17T01:57:47.843Z,3.3
2019-03-17T02:03:11.663Z,3.6
2019-03-17T02:08:34.721Z,3.7
2019-03-17T02:13:58.259Z,3.2
2019-03-17T02:19:21.062Z,3.7
2019-03-17T02:24:43.719Z,3.8
2019-03-17T02:30:06.426Z,3.8
2019-03-17T02:35:38.388Z,3.4
2019-03-17T02:40:53.061Z,3.2
2019-03-17T02:46:15.701Z,3
2019-03-17T02:51:38.292Z,2.7
2019-03-17T02:57:00.883Z,2.9
2019-03-17T03:02:23.480Z,3.1
2019-03-17T03:07:46.089Z,3
2019-03-17T03:13:08.744Z,3.1
2019-03-17T03:18:31.340Z,3
2019-03-17T03:23:54.024Z,3.4
2019-03-17T03:29:16.637Z,3.1
2019-03-17T03:34:40.142Z,3.4
2019-03-17T03:40:02.742Z,3.1
2019-03-17T03:45:25.438Z,2.4
2019-03-17T03:50:48.004Z,2.6
2019-03-17T03:56:10.688Z,2.9
2019-03-17T04:01:33.299Z,2.8
2019-03-17T04:06:55.919Z,3.1
2019-03-17T04:12:18.515Z,3
2019-03-17T04:17:41.165Z,3.1
2019-03-17T04:23:04.724Z,3.5
2019-03-17T04:28:27.367Z,3.1
2019-03-17T04:33:49.952Z,3.1
2019-03-17T04:39:12.610Z,2.8
2019-03-17T04:44:35.195Z,3.6
2019-03-17T04:49:57.831Z,4
2019-03-17T04:55:20.468Z,3.6
2019-03-17T05:00:43.992Z,3.8
2019-03-17T05:06:06.656Z,3.5
2019-03-17T05:11:29.249Z,3.5
2019-03-17T05:16:51.904Z,3.7
2019-03-17T05:22:14.489Z,3.9
2019-03-17T05:27:37.145Z,3.6
2019-03-17T05:32:59.727Z,3.4
2019-03-17T05:38:22.395Z,3.7
2019-03-17T05:43:44.999Z,3.3
2019-03-17T05:49:07.692Z,3.2
2019-03-17T05:54:30.306Z,3.9
2019-03-17T05:59:52.975Z,3.8
2019-03-17T06:05:15.550Z,3.6
2019-03-17T06:10:39.139Z,4.4
2019-03-17T06:16:02.626Z,4.9
2019-03-17T06:21:25.195Z,5.5
2019-03-17T06:26:47.812Z,5.8
2019-03-17T06:32:10.454Z,6.9
2019-03-17T06:37:33.049Z,6.9
2019-03-17T06:42:55.745Z,7.7
2019-03-17T06:48:18.344Z,5.8
2019-03-17T06:53:41.012Z,5.6
2019-03-17T06:59:04.362Z,5.9
2019-03-17T07:04:27.905Z,5.9
2019-03-17T07:09:50.870Z,5.7
2019-03-17T07:15:14.143Z,6.6
2019-03-17T07:20:47.316Z,6
2019-03-17T07:26:18.598Z,6.8
2019-03-17T07:31:41.379Z,1.4
2019-03-17T07:37:04.064Z,1.6
2019-03-17T07:42:26.803Z,1.2
2019-03-17T07:47:50.335Z,1.2
2019-03-17T07:53:13.110Z,1.2
2019-03-17T07:58:35.859Z,1.5
2019-03-17T08:03:58.560Z,1.2
2019-03-17T08:09:21.233Z,1.5
2019-03-17T08:14:44.242Z,1.5
2019-03-17T08:20:06.983Z,1.5
2019-03-17T08:25:29.613Z,1.6
2019-03-17T08:30:53.544Z,1.5
2019-03-17T08:36:15.899Z,1.4
2019-03-17T08:41:38.780Z,1.3
2019-03-17T08:47:01.528Z,1.4
2019-03-17T08:52:24.159Z,1.3
2019-03-17T08:57:46.910Z,1
2019-03-17T09:03:10.566Z,1.1
2019-03-17T09:08:35.147Z,1
2019-03-17T09:13:56.985Z,1
2019-03-17T09:19:19.660Z,1
2019-03-17T09:24:42.324Z,1.2
2019-03-17T09:30:05.059Z,1.1
2019-03-17T09:35:27.698Z,1.5
2019-03-17T09:40:50.361Z,1.3
2019-03-17T09:46:13.372Z,1.6
2019-03-17T09:51:36.003Z,1.4
2019-03-17T09:56:59.966Z,1.3
2019-03-17T10:02:22.956Z,1.6
2019-03-17T10:07:45.942Z,1.8
2019-03-17T10:13:09.328Z,1.6
2019-03-17T10:18:31.953Z,1.8
2019-03-17T10:23:54.613Z,1.8
2019-03-17T10:29:17.274Z,2
2019-03-17T10:34:39.899Z,2.2
2019-03-17T10:40:02.549Z,1.9
2019-03-17T10:45:25.252Z,2.8
2019-03-17T10:50:49.673Z,2.1
2019-03-17T10:56:11.665Z,2.3
2019-03-17T11:01:34.534Z,2.2
2019-03-17T11:06:57.384Z,2.1
2019-03-17T11:12:20.163Z,1.2
2019-03-17T11:17:42.784Z,1.7
2019-03-17T11:23:05.452Z,2.2
2019-03-17T11:28:28.146Z,2.4
2019-03-17T11:33:50.905Z,2
2019-03-17T11:39:14.377Z,2.4
2019-03-17T11:44:37.001Z,2.1
2019-03-17T11:49:59.856Z,1
2019-03-17T11:55:22.533Z,0.8
2019-03-17T12:00:45.706Z,0.8
2019-03-17T12:06:08.364Z,0.8
2019-03-17T12:11:31.254Z,0.9
2019-03-17T12:16:54.000Z,0.6
2019-03-17T12:22:16.673Z,0.5
2019-03-17T12:27:39.309Z,0.5
2019-03-17T12:33:02.117Z,0.7
2019-03-17T12:38:24.731Z,0.7
2019-03-17T12:43:47.386Z,0.8
2019-03-17T12:49:10.248Z,0.7
2019-03-17T12:54:34.324Z,0.9
2019-03-17T12:59:56.965Z,1.1
2019-03-17T13:05:20.814Z,1.1
2019-03-17T13:10:43.533Z,0.9
2019-03-17T13:16:06.170Z,1
2019-03-17T13:21:28.836Z,1.1
2019-03-17T13:26:53.006Z,0.9
2019-03-17T13:32:15.689Z,0.8
2019-03-17T13:37:38.345Z,1.1
2019-03-17T13:43:01.026Z,1.1
2019-03-17T13:48:23.761Z,1.2
2019-03-17T13:53:46.452Z,1.3
2019-03-17T13:59:09.886Z,1.2
2019-03-17T14:04:32.798Z,1.2
2019-03-17T14:09:55.551Z,1.1
2019-03-17T14:15:18.280Z,1.3
2019-03-17T14:20:41.070Z,1.2
2019-03-17T14:26:03.915Z,1.5
2019-03-17T14:31:26.669Z,1.3
2019-03-17T14:36:49.358Z,1.6
2019-03-17T14:42:12.044Z,1.6
2019-03-17T14:47:34.753Z,1.4
2019-03-17T14:52:57.380Z,1.2
2019-03-17T14:58:20.232Z,1.3
2019-03-17T15:03:43.523Z,1.2
2019-03-17T15:09:06.539Z,2.6
2019-03-17T15:14:30.274Z,3.8
2019-03-17T15:19:53.062Z,1.2
2019-03-17T15:25:16.729Z,1.3
2019-03-17T15:30:39.513Z,1.3
2019-03-17T15:36:02.204Z,1.3
2019-03-17T15:41:24.781Z,1.2
2019-03-17T15:46:47.462Z,1.1
2019-03-17T15:52:11.178Z,1
2019-03-17T15:57:34.317Z,1.4
2019-03-17T16:02:56.955Z,1.3
2019-03-17T16:08:19.618Z,1.6
2019-03-17T16:13:42.242Z,1.1
2019-03-17T16:19:05.107Z,1.1
2019-03-17T16:24:27.898Z,1.1
2019-03-17T16:29:50.591Z,1.3
2019-03-17T16:35:13.264Z,1
2019-03-17T16:40:35.903Z,1.2
2019-03-17T16:45:58.495Z,0.9
2019-03-17T16:51:21.233Z,1.2
2019-03-17T16:56:44.585Z,1.2
2019-03-17T17:02:07.410Z,1.1
2019-03-17T17:07:32.268Z,1.2
2019-03-17T17:12:55.239Z,1.1
2019-03-17T17:18:17.999Z,1
2019-03-17T17:23:40.898Z,1.2
2019-03-17T17:29:03.943Z,1.2
2019-03-17T17:34:26.734Z,1.2
2019-03-17T17:39:49.766Z,1.2
2019-03-17T17:45:12.606Z,1.3
2019-03-17T17:50:35.376Z,1.3
2019-03-17T17:55:58.194Z,1.3
2019-03-17T18:01:20.975Z,0.9
2019-03-17T18:06:43.668Z,0.9
2019-03-17T18:12:06.584Z,1.1
2019-03-17T18:17:29.629Z,1.1
2019-03-17T18:22:52.393Z,1.1
2019-03-17T18:28:15.407Z,1.4
2019-03-17T18:33:38.157Z,1.3
2019-03-17T18:39:01.554Z,1.3
2019-03-17T18:44:24.623Z,1.2
2019-03-17T18:49:47.366Z,1.2
2019-03-17T18:55:19.908Z,1.3
2019-03-17T19:00:42.835Z,1.3
2019-03-17T19:06:05.810Z,1.1
2019-03-17T19:11:28.618Z,1
2019-03-17T19:16:51.462Z,1.3
2019-03-17T19:22:16.141Z,1.5
2019-03-17T19:27:38.885Z,1.6
2019-03-17T19:33:01.599Z,1.4
2019-03-17T19:38:24.412Z,1.5
2019-03-17T19:43:48.109Z,1.4
2019-03-17T19:49:11.086Z,1.7
2019-03-17T19:54:33.856Z,1.4
2019-03-17T19:59:56.489Z,1.4
2019-03-17T20:05:19.543Z,1.8
2019-03-17T20:10:42.162Z,1.8
2019-03-17T20:16:04.812Z,1.5
2019-03-17T20:21:27.428Z,1.8
2019-03-17T20:26:50.009Z,1.9
2019-03-17T20:32:12.640Z,1.7
2019-03-17T20:37:35.307Z,1.7
2019-03-17T20:42:57.931Z,1.5
2019-03-17T20:48:20.679Z,1.5
2019-03-17T20:53:43.279Z,1.5
2019-03-17T20:59:05.899Z,1.8
2019-03-17T21:04:28.540Z,1.8
2019-03-17T21:09:51.758Z,1.6
2019-03-17T21:15:14.418Z,1.6
2019-03-17T21:20:37.051Z,1.6
2019-03-17T21:25:59.674Z,2
2019-03-17T21:31:22.307Z,2.6
2019-03-17T21:36:44.899Z,2
2019-03-17T21:42:07.537Z,1.8
2019-03-17T21:47:30.140Z,2.1
2019-03-17T21:52:52.762Z,2.1
2019-03-17T21:58:15.381Z,2.5
2019-03-17T22:03:38.637Z,1.8
2019-03-17T22:09:01.402Z,2.2
2019-03-17T22:14:23.932Z,2
2019-03-17T22:19:46.595Z,2.2
2019-03-17T22:25:10.146Z,1.8
2019-03-17T22:30:33.482Z,1.5
2019-03-17T22:35:56.085Z,1.8
2019-03-17T22:41:18.794Z,1.8
2019-03-17T22:46:42.006Z,2
2019-03-17T22:52:04.616Z,2.2
2019-03-17T22:57:29.279Z,2.6
2019-03-17T23:02:51.887Z,2.9
2019-03-17T23:08:14.509Z,2.9
2019-03-17T23:13:37.135Z,3.2
2019-03-17T23:18:59.781Z,3.1
2019-03-17T23:24:22.695Z,3.4
2019-03-17T23:29:45.376Z,4
2019-03-17T23:35:07.994Z,3.5
2019-03-17T23:40:30.605Z,3.4
2019-03-17T23:45:53.223Z,4.4
2019-03-17T23:51:16.824Z,4.5
2019-03-17T23:56:39.429Z,5
